Time;durP1;ratioP1;P1;durP2;ratioP2;P2;SDS_P1;SDS_P2;PMS_P1;PMS_P2;Temp;Humidity;BMP_temperature;BMP_pressure;BME280_temperature;BME280_humidity;BME280_pressure;Samples;Min_cycle;Max_cycle;Signal;HPM_P1;HPM_P2
2022/07/23 00:00:28;;;;;;;9.43;6.10;;;22.50;99.90;;;;;;5017375;28;20448;-57
2022/07/23 00:03:03;;;;;;;7.60;6.90;;;22.40;99.90;;;;;;5016868;28;20807;-55
2022/07/23 00:05:31;;;;;;;7.10;6.60;;;22.20;99.90;;;;;;5016768;28;20773;-53
2022/07/23 00:08:01;;;;;;;10.27;7.10;;;22.20;99.90;;;;;;5016694;28;20413;-55
2022/07/23 00:10:28;;;;;;;7.87;7.17;;;22.30;99.90;;;;;;5017173;28;20440;-53
2022/07/23 00:12:55;;;;;;;7.87;7.07;;;22.30;99.90;;;;;;5020871;28;20628;-52
2022/07/23 00:15:22;;;;;;;8.13;7.50;;;22.30;99.90;;;;;;5021684;28;20478;-52
2022/07/23 00:17:50;;;;;;;7.30;6.57;;;22.30;99.90;;;;;;5017892;28;20455;-57
2022/07/23 00:20:17;;;;;;;8.30;7.50;;;22.20;99.90;;;;;;5020719;28;20657;-55
2022/07/23 00:22:52;;;;;;;8.23;7.53;;;22.10;99.90;;;;;;5015431;28;20447;-54
2022/07/23 00:25:21;;;;;;;7.57;6.87;;;22.00;99.90;;;;;;5021830;28;20405;-55
2022/07/23 00:27:59;;;;;;;7.67;6.97;;;22.10;99.90;;;;;;5015696;28;20435;-56
2022/07/23 00:30:26;;;;;;;10.30;7.07;;;22.10;99.90;;;;;;5020302;28;20483;-54
2022/07/23 00:32:56;;;;;;;12.73;8.73;;;22.00;99.90;;;;;;5017100;28;20432;-54
2022/07/23 00:35:30;;;;;;;8.80;8.00;;;21.80;99.90;;;;;;5018312;28;20428;-53
2022/07/23 00:37:58;;;;;;;9.53;8.43;;;21.70;99.90;;;;;;5015750;28;20405;-52
2022/07/23 00:40:26;;;;;;;7.60;6.90;;;21.70;99.90;;;;;;5017979;28;20419;-55
2022/07/23 00:42:53;;;;;;;7.80;7.00;;;21.50;99.90;;;;;;5016614;28;20644;-55
2022/07/23 00:45:21;;;;;;;8.77;7.87;;;21.50;99.90;;;;;;5019039;28;20788;-53
2022/07/23 00:47:49;;;;;;;9.30;8.00;;;21.50;99.90;;;;;;5015712;28;20415;-52
2022/07/23 00:50:16;;;;;;;8.87;7.87;;;21.50;99.90;;;;;;5018342;28;20421;-53
2022/07/23 00:52:43;;;;;;;8.80;8.00;;;21.50;99.90;;;;;;5014090;28;20482;-55
2022/07/23 00:55:12;;;;;;;9.40;8.50;;;21.40;99.90;;;;;;5017418;28;20631;-54
2022/07/23 00:57:41;;;;;;;9.83;8.83;;;21.30;99.90;;;;;;5019296;28;20444;-53
2022/07/23 01:00:11;;;;;;;9.10;8.20;;;21.20;99.90;;;;;;5016579;28;20481;-52
2022/07/23 01:02:39;;;;;;;21.90;8.87;;;21.10;99.90;;;;;;5020891;28;20439;-54
2022/07/23 01:05:08;;;;;;;14.57;8.43;;;21.20;99.90;;;;;;5018225;28;20756;-53
2022/07/23 01:07:36;;;;;;;9.63;8.63;;;21.20;99.90;;;;;;5021767;28;20441;-53
2022/07/23 01:10:30;;;;;;;9.13;8.27;;;21.10;99.90;;;;;;5018047;28;20671;-55
2022/07/23 01:12:52;;;;;;;9.63;8.83;;;21.10;99.90;;;;;;5020063;28;20486;-54
2022/07/23 01:15:19;;;;;;;12.60;9.60;;;21.10;99.90;;;;;;5021605;28;20407;-53
2022/07/23 01:17:47;;;;;;;8.60;7.57;;;21.00;99.90;;;;;;5016708;28;20419;-52
2022/07/23 01:20:14;;;;;;;9.90;8.90;;;20.90;99.90;;;;;;5021149;28;20449;-54
2022/07/23 01:22:42;;;;;;;9.57;8.67;;;21.00;99.90;;;;;;5014072;28;20434;-50
2022/07/23 01:25:09;;;;;;;9.70;8.50;;;20.80;99.90;;;;;;5020682;28;20434;-51
2022/07/23 01:27:36;;;;;;;9.67;8.70;;;20.70;99.90;;;;;;5021463;28;20660;-50
2022/07/23 01:30:05;;;;;;;9.97;9.07;;;20.60;99.90;;;;;;5021635;28;20427;-54
2022/07/23 01:32:32;;;;;;;10.13;8.57;;;20.70;99.90;;;;;;5023115;28;20421;-54
2022/07/23 01:35:00;;;;;;;9.77;8.77;;;20.70;99.90;;;;;;5023006;28;20414;-51
2022/07/23 01:37:27;;;;;;;9.67;8.67;;;20.70;99.90;;;;;;5017097;28;20413;-55
2022/07/23 01:39:55;;;;;;;9.23;8.30;;;20.60;99.90;;;;;;5020807;28;20446;-52
2022/07/23 01:42:23;;;;;;;8.90;8.00;;;20.70;99.90;;;;;;5022058;28;20417;-53
2022/07/23 01:44:50;;;;;;;9.67;8.30;;;20.70;99.90;;;;;;5016535;28;20422;-50
2022/07/23 01:47:18;;;;;;;10.37;9.17;;;20.80;99.90;;;;;;5024058;28;20791;-53
2022/07/23 01:49:45;;;;;;;8.43;7.63;;;20.80;99.90;;;;;;5017310;28;20917;-53
2022/07/23 01:52:12;;;;;;;9.30;8.00;;;20.80;99.90;;;;;;5025017;28;20526;-51
2022/07/23 01:54:39;;;;;;;11.30;8.40;;;20.70;99.90;;;;;;5020949;28;20616;-50
2022/07/23 01:57:07;;;;;;;8.77;7.97;;;20.70;99.90;;;;;;5023222;28;20419;-56
2022/07/23 01:59:35;;;;;;;9.43;8.40;;;20.70;99.90;;;;;;5022435;28;20453;-50
2022/07/23 02:02:03;;;;;;;9.13;8.30;;;20.50;99.90;;;;;;5018950;28;20454;-53
2022/07/23 02:04:30;;;;;;;9.40;8.47;;;20.60;99.90;;;;;;5023279;28;20487;-54
2022/07/23 02:06:58;;;;;;;10.57;9.47;;;20.50;99.90;;;;;;5018231;28;20447;-52
2022/07/23 02:09:25;;;;;;;9.93;9.07;;;20.70;99.90;;;;;;5023349;28;20445;-51
2022/07/23 02:11:53;;;;;;;10.50;9.50;;;20.70;99.90;;;;;;5019806;28;20694;-52
2022/07/23 02:14:20;;;;;;;10.70;9.70;;;20.70;99.90;;;;;;5021821;28;20821;-51
2022/07/23 02:16:47;;;;;;;12.40;9.20;;;20.70;99.90;;;;;;5012784;28;20447;-52
2022/07/23 02:19:15;;;;;;;11.87;8.07;;;20.60;99.90;;;;;;5020326;28;20815;-50
2022/07/23 02:21:42;;;;;;;9.80;8.80;;;20.50;99.90;;;;;;5019961;28;20438;-51
2022/07/23 02:24:10;;;;;;;9.47;8.47;;;20.50;99.90;;;;;;5017892;28;20478;-50
2022/07/23 02:26:37;;;;;;;13.73;8.70;;;20.60;99.90;;;;;;5022059;28;20410;-49
2022/07/23 02:29:05;;;;;;;11.43;8.10;;;20.70;99.90;;;;;;5018878;28;20419;-50
2022/07/23 02:31:32;;;;;;;11.57;10.47;;;20.60;99.90;;;;;;5021463;28;20406;-56
2022/07/23 02:34:00;;;;;;;10.00;9.00;;;20.60;99.90;;;;;;5024123;28;20653;-50
2022/07/23 02:36:28;;;;;;;11.07;9.20;;;20.60;99.90;;;;;;5019366;28;20661;-53
2022/07/23 02:38:55;;;;;;;10.13;9.23;;;20.70;99.90;;;;;;5022637;28;20459;-49
2022/07/23 02:41:23;;;;;;;11.50;8.37;;;20.70;99.90;;;;;;5019078;28;20443;-50
2022/07/23 02:43:50;;;;;;;15.97;9.70;;;20.70;99.90;;;;;;5021683;28;20474;-49
2022/07/23 02:46:18;;;;;;;11.43;8.93;;;20.60;99.90;;;;;;5018141;28;20607;-52
2022/07/23 02:48:45;;;;;;;9.70;8.70;;;20.70;99.90;;;;;;5020476;28;20409;-51
2022/07/23 02:51:12;;;;;;;11.20;8.30;;;20.80;99.90;;;;;;5022551;28;20413;-51
2022/07/23 02:53:41;;;;;;;9.33;8.27;;;20.80;99.90;;;;;;5019315;28;20608;-52
2022/07/23 02:56:08;;;;;;;12.80;9.70;;;20.80;99.90;;;;;;5021628;28;20494;-54
2022/07/23 02:58:36;;;;;;;11.97;9.50;;;20.90;99.90;;;;;;5016126;28;20624;-53
2022/07/23 03:01:04;;;;;;;10.57;9.57;;;20.80;99.90;;;;;;5020692;28;20484;-48
2022/07/23 03:03:31;;;;;;;10.93;9.80;;;20.80;99.90;;;;;;5017173;28;20748;-50
2022/07/23 03:05:58;;;;;;;10.73;9.63;;;20.80;99.90;;;;;;5020105;28;20439;-50
2022/07/23 03:08:25;;;;;;;15.50;9.37;;;20.80;99.90;;;;;;5021706;28;20633;-48
2022/07/23 03:10:53;;;;;;;10.27;9.23;;;20.90;99.90;;;;;;5018960;28;20450;-49
2022/07/23 03:13:20;;;;;;;9.17;8.27;;;20.90;99.90;;;;;;5021089;28;20425;-51
2022/07/23 03:15:47;;;;;;;10.57;9.43;;;21.00;99.90;;;;;;5010543;28;20446;-53
2022/07/23 03:18:15;;;;;;;10.70;9.50;;;21.00;99.90;;;;;;5020440;28;20417;-50
2022/07/23 03:20:42;;;;;;;10.57;9.47;;;21.10;99.90;;;;;;5016720;28;20546;-52
2022/07/23 03:23:09;;;;;;;10.10;9.10;;;21.00;99.90;;;;;;5019528;28;20421;-50
2022/07/23 03:25:36;;;;;;;9.27;8.33;;;21.10;99.90;;;;;;5022914;28;20631;-49
2022/07/23 03:28:04;;;;;;;8.90;8.10;;;21.10;99.90;;;;;;5019154;28;20521;-50
2022/07/23 03:30:31;;;;;;;9.80;8.80;;;21.10;99.90;;;;;;5020789;28;20498;-49
2022/07/23 03:32:59;;;;;;;8.93;8.10;;;21.20;99.90;;;;;;5021532;28;20452;-54
2022/07/23 03:35:26;;;;;;;15.90;9.07;;;21.30;99.90;;;;;;5020986;28;20445;-54
2022/07/23 03:37:54;;;;;;;11.20;10.17;;;21.30;99.90;;;;;;5017936;28;20442;-51
2022/07/23 03:40:21;;;;;;;10.03;8.10;;;21.40;99.90;;;;;;5021898;28;20455;-55
2022/07/23 03:42:48;;;;;;;11.23;8.70;;;21.40;99.90;;;;;;5015715;28;20448;-53
2022/07/23 03:45:15;;;;;;;9.10;8.20;;;21.60;99.90;;;;;;5021547;28;20471;-55
2022/07/23 03:47:44;;;;;;;11.03;9.90;;;22.00;99.90;;;;;;5013709;28;20408;-54
2022/07/23 03:50:11;;;;;;;11.47;10.30;;;22.20;99.90;;;;;;5021143;28;20482;-52
2022/07/23 03:52:38;;;;;;;9.40;8.60;;;22.50;99.90;;;;;;5018828;28;20416;-51
2022/07/23 03:55:07;;;;;;;13.30;10.63;;;22.80;99.90;;;;;;5018668;28;20440;-54
2022/07/23 03:57:34;;;;;;;10.00;9.00;;;23.00;99.90;;;;;;5018785;28;20426;-49
2022/07/23 04:00:02;;;;;;;9.50;8.50;;;23.10;99.90;;;;;;5018070;28;20474;-50
2022/07/23 04:02:29;;;;;;;9.63;8.80;;;23.20;99.90;;;;;;5019320;28;20472;-51
2022/07/23 04:04:57;;;;;;;13.40;9.30;;;23.20;99.90;;;;;;5013813;28;20840;-52
2022/07/23 04:07:24;;;;;;;13.53;9.37;;;23.40;99.90;;;;;;5020332;28;20415;-49
2022/07/23 04:09:52;;;;;;;10.27;9.00;;;23.50;99.90;;;;;;5016701;28;20751;-49
2022/07/23 04:12:19;;;;;;;16.63;7.73;;;23.60;99.90;;;;;;5019518;28;20423;-52
2022/07/23 04:14:47;;;;;;;10.90;9.27;;;23.80;99.90;;;;;;5016486;28;20428;-49
2022/07/23 04:17:14;;;;;;;10.07;9.10;;;23.90;99.90;;;;;;5017813;28;20535;-53
2022/07/23 04:19:43;;;;;;;9.57;8.77;;;23.80;99.90;;;;;;5017332;28;20483;-50
2022/07/23 04:22:11;;;;;;;9.67;8.67;;;23.80;99.90;;;;;;5015967;28;20529;-53
2022/07/23 04:24:39;;;;;;;9.30;8.43;;;23.60;99.90;;;;;;5019739;28;20462;-50
2022/07/23 04:27:06;;;;;;;11.13;8.70;;;23.60;99.90;;;;;;5016368;28;20773;-48
2022/07/23 04:29:33;;;;;;;10.37;9.07;;;23.70;99.90;;;;;;5018870;28;20615;-49
2022/07/23 04:32:01;;;;;;;12.83;9.77;;;23.70;99.90;;;;;;5019988;28;20417;-50
2022/07/23 04:34:28;;;;;;;8.77;7.90;;;23.70;99.90;;;;;;5019869;28;20431;-53
2022/07/23 04:36:56;;;;;;;10.57;9.27;;;23.60;99.90;;;;;;5016571;28;20442;-51
2022/07/23 04:39:23;;;;;;;11.33;8.50;;;23.60;99.90;;;;;;5018747;28;20549;-53
2022/07/23 04:41:50;;;;;;;9.10;8.20;;;23.50;99.90;;;;;;5015753;28;20430;-51
2022/07/23 04:44:18;;;;;;;7.97;7.27;;;23.60;99.90;;;;;;5017817;28;20439;-52
2022/07/23 04:46:45;;;;;;;10.17;9.10;;;23.90;99.90;;;;;;5014288;28;20430;-53
2022/07/23 04:49:13;;;;;;;7.67;6.77;;;23.90;99.90;;;;;;5026704;28;20421;-49
2022/07/23 04:51:40;;;;;;;8.47;7.73;;;24.00;99.90;;;;;;5019536;28;20461;-51
2022/07/23 04:54:07;;;;;;;8.60;7.80;;;24.10;99.90;;;;;;4978253;28;1111861;-53
2022/07/23 04:56:34;;;;;;;7.80;7.10;;;24.10;99.90;;;;;;5019195;28;20209;-55
2022/07/23 04:59:02;;;;;;;7.87;7.17;;;24.10;99.90;;;;;;5015842;28;20491;-50
2022/07/23 05:01:29;;;;;;;10.00;7.33;;;23.90;99.90;;;;;;5018232;28;20484;-51
2022/07/23 05:03:57;;;;;;;12.40;8.67;;;24.00;99.90;;;;;;5015318;28;20855;-48
2022/07/23 05:06:24;;;;;;;8.70;7.80;;;23.90;99.90;;;;;;5017696;28;20435;-49
2022/07/23 05:08:52;;;;;;;7.70;6.93;;;23.90;99.90;;;;;;5020365;28;20441;-49
2022/07/23 05:11:19;;;;;;;8.53;7.03;;;23.90;99.90;;;;;;5017163;28;20435;-52
2022/07/23 05:13:52;;;;;;;7.30;6.70;;;23.80;99.90;;;;;;5036473;23;20525;-47
2022/07/23 05:16:20;;;;;;;7.30;6.70;;;23.90;99.90;;;;;;5014472;28;20612;-45
2022/07/23 05:18:47;;;;;;;7.77;7.07;;;23.80;99.90;;;;;;5016079;28;20416;-46
2022/07/23 05:21:14;;;;;;;7.83;7.10;;;23.80;99.90;;;;;;5016487;28;20453;-51
2022/07/23 05:23:41;;;;;;;9.67;7.33;;;23.80;99.90;;;;;;5017832;28;20456;-47
2022/07/23 05:26:09;;;;;;;8.33;7.53;;;23.90;99.90;;;;;;5016631;28;20428;-47
2022/07/23 05:28:36;;;;;;;8.93;8.03;;;24.10;99.90;;;;;;5013208;28;20445;-45
2022/07/23 05:31:03;;;;;;;7.33;6.73;;;24.10;99.90;;;;;;5013507;28;20413;-48
2022/07/23 05:33:31;;;;;;;7.37;6.30;;;24.20;99.90;;;;;;5014152;28;20429;-50
2022/07/23 05:36:02;;;;;;;8.13;7.30;;;24.30;99.90;;;;;;5017572;28;20439;-44
2022/07/23 05:38:31;;;;;;;8.07;7.37;;;24.40;99.90;;;;;;5014350;28;20447;-45
2022/07/23 05:40:59;;;;;;;8.87;7.97;;;24.50;99.90;;;;;;5017079;28;20457;-46
2022/07/23 05:43:26;;;;;;;9.13;6.73;;;24.40;99.90;;;;;;5012428;28;20462;-45
2022/07/23 05:45:54;;;;;;;8.20;7.40;;;24.40;99.90;;;;;;5018238;28;20470;-46
2022/07/23 05:48:21;;;;;;;7.37;6.70;;;24.30;99.90;;;;;;5011467;28;20431;-51
2022/07/23 05:50:49;;;;;;;8.83;8.03;;;24.40;99.90;;;;;;5015308;28;20446;-52
2022/07/23 05:53:16;;;;;;;8.70;8.00;;;24.50;99.90;;;;;;5012812;28;20455;-49
2022/07/23 05:55:43;;;;;;;7.83;7.10;;;24.80;99.90;;;;;;5014666;28;20442;-48
2022/07/23 05:58:10;;;;;;;8.30;7.50;;;24.90;99.90;;;;;;5015001;28;20435;-45
2022/07/23 06:00:38;;;;;;;8.10;7.30;;;25.00;99.90;;;;;;5013414;28;20478;-46
2022/07/23 06:03:05;;;;;;;7.07;6.47;;;25.30;99.90;;;;;;5016343;28;20615;-49
2022/07/23 06:05:32;;;;;;;8.67;7.10;;;25.50;99.90;;;;;;5013495;28;20432;-49
2022/07/23 06:08:00;;;;;;;6.93;6.30;;;25.50;99.90;;;;;;5015033;28;20430;-49
2022/07/23 06:10:27;;;;;;;9.93;7.50;;;25.80;99.90;;;;;;5012372;28;20463;-45
2022/07/23 06:12:54;;;;;;;9.13;8.23;;;26.00;99.90;;;;;;5015262;28;20763;-47
2022/07/23 06:15:28;;;;;;;6.70;6.20;;;26.30;99.90;;;;;;5012922;28;20745;-49
2022/07/23 06:17:55;;;;;;;7.73;6.97;;;26.20;99.90;;;;;;5014760;28;20427;-46
2022/07/23 06:20:22;;;;;;;10.50;7.43;;;26.10;99.90;;;;;;5013668;28;20485;-52
2022/07/23 06:22:49;;;;;;;8.17;7.07;;;26.00;99.90;;;;;;5014860;28;20415;-45
2022/07/23 06:25:16;;;;;;;9.70;6.90;;;26.30;99.90;;;;;;4995423;28;20451;-47
2022/07/23 06:27:46;;;;;;;8.63;7.57;;;26.30;99.90;;;;;;5014457;28;20645;-45
2022/07/23 06:30:15;;;;;;;8.03;7.23;;;26.40;99.90;;;;;;5013464;28;20403;-51
2022/07/23 06:32:45;;;;;;;9.13;7.30;;;26.50;99.90;;;;;;5012581;28;20449;-47
2022/07/23 06:35:12;;;;;;;6.60;6.00;;;26.40;99.90;;;;;;5015483;28;20467;-45
2022/07/23 06:37:40;;;;;;;7.63;6.80;;;27.10;99.90;;;;;;5011823;28;20515;-50
2022/07/23 06:40:07;;;;;;;13.60;7.50;;;27.40;99.90;;;;;;5015363;28;20498;-45
2022/07/23 06:42:39;;;;;;;8.70;7.93;;;28.00;99.90;;;;;;5012253;28;20447;-45
2022/07/23 06:45:07;;;;;;;7.47;6.77;;;28.40;99.90;;;;;;5016290;28;20447;-52
2022/07/23 06:47:34;;;;;;;8.10;7.33;;;28.40;99.90;;;;;;5012420;28;20439;-48
2022/07/23 06:50:02;;;;;;;8.00;7.20;;;28.30;99.90;;;;;;5010661;28;20431;-46
2022/07/23 06:52:30;;;;;;;7.70;7.00;;;28.20;99.90;;;;;;5016397;28;20788;-48
2022/07/23 06:54:57;;;;;;;8.97;7.23;;;28.40;99.90;;;;;;5010423;28;20535;-47
2022/07/23 06:57:25;;;;;;;7.87;7.17;;;28.70;99.90;;;;;;5017064;28;20453;-49
2022/07/23 06:59:52;;;;;;;11.27;6.80;;;29.20;99.90;;;;;;5010655;28;20432;-47
2022/07/23 07:02:22;;;;;;;9.40;7.10;;;29.60;99.90;;;;;;5017632;28;20431;-45
2022/07/23 07:04:49;;;;;;;7.07;6.37;;;29.80;99.90;;;;;;5010476;28;20478;-51
2022/07/23 07:07:16;;;;;;;7.50;6.90;;;30.00;99.90;;;;;;5010451;28;20439;-49
2022/07/23 07:09:44;;;;;;;8.20;7.40;;;29.70;99.90;;;;;;5016126;28;20438;-51
2022/07/23 07:12:14;;;;;;;7.70;7.00;;;29.70;99.90;;;;;;5006213;28;20428;-47
2022/07/23 07:14:41;;;;;;;6.73;6.20;;;29.30;99.90;;;;;;5016790;28;20442;-47
2022/07/23 07:17:10;;;;;;;6.20;5.67;;;29.10;99.90;;;;;;5010428;28;20432;-45
2022/07/23 07:19:38;;;;;;;7.80;7.10;;;29.20;99.90;;;;;;5017908;28;20438;-51
2022/07/23 07:22:05;;;;;;;8.60;7.60;;;29.10;99.90;;;;;;5009808;28;20485;-46
2022/07/23 07:24:32;;;;;;;6.60;6.00;;;29.00;99.90;;;;;;5011488;28;20459;-46
2022/07/23 07:27:04;;;;;;;7.97;7.27;;;28.50;99.90;;;;;;5013052;28;20446;-48
2022/07/23 07:29:31;;;;;;;8.33;7.50;;;28.60;99.90;;;;;;5011236;28;20438;-45
2022/07/23 07:31:59;;;;;;;8.63;7.93;;;28.60;99.90;;;;;;5014564;28;20445;-47
2022/07/23 07:34:26;;;;;;;8.53;7.63;;;28.80;99.90;;;;;;5011265;28;20473;-49
2022/07/23 07:36:54;;;;;;;8.57;7.77;;;28.70;99.90;;;;;;5013515;28;20446;-44
2022/07/23 07:39:21;;;;;;;8.07;7.30;;;28.50;99.90;;;;;;5011306;28;20437;-51
2022/07/23 07:41:48;;;;;;;8.17;7.43;;;28.80;99.90;;;;;;5013197;28;20689;-49
2022/07/23 07:44:16;;;;;;;8.00;7.17;;;29.00;99.90;;;;;;5012549;28;20463;-46
2022/07/23 07:46:43;;;;;;;8.87;7.80;;;29.30;99.90;;;;;;5012402;28;20434;-48
2022/07/23 07:49:11;;;;;;;9.10;8.30;;;29.60;99.90;;;;;;5012791;28;20477;-49
2022/07/23 07:51:42;;;;;;;8.30;7.60;;;30.10;99.90;;;;;;5010622;28;20750;-46
2022/07/23 07:54:11;;;;;;;7.93;7.23;;;30.10;99.90;;;;;;5012949;28;20606;-46
2022/07/23 07:56:39;;;;;;;7.80;7.10;;;30.80;99.90;;;;;;5011358;28;20444;-49
2022/07/23 07:59:07;;;;;;;12.10;6.80;;;31.20;99.90;;;;;;5012551;28;20638;-46
2022/07/23 08:01:36;;;;;;;7.97;7.27;;;31.40;99.90;;;;;;5011895;28;20563;-46
2022/07/23 08:04:04;;;;;;;8.50;7.47;;;30.40;99.90;;;;;;5012613;28;20635;-47
2022/07/23 08:06:32;;;;;;;9.30;8.43;;;30.40;99.90;;;;;;5010896;28;20746;-48
2022/07/23 08:08:59;;;;;;;8.57;7.87;;;30.70;99.90;;;;;;4995008;28;20433;-48
2022/07/23 08:11:27;;;;;;;10.33;8.67;;;31.60;99.90;;;;;;5011854;28;20507;-48
2022/07/23 08:13:54;;;;;;;14.83;7.40;;;32.20;99.90;;;;;;5005221;28;20669;-48
2022/07/23 08:16:21;;;;;;;9.07;8.27;;;32.50;99.90;;;;;;5009385;28;20921;-50
2022/07/23 08:18:51;;;;;;;11.00;8.00;;;32.80;99.90;;;;;;4990978;28;21468;-53
2022/07/23 08:21:18;;;;;;;12.57;7.87;;;32.50;99.90;;;;;;4988068;28;20482;-50
2022/07/23 08:23:45;;;;;;;9.23;7.53;;;32.00;99.90;;;;;;4988263;28;20474;-47
2022/07/23 08:26:13;;;;;;;9.23;8.43;;;31.80;99.90;;;;;;4987344;28;20757;-46
2022/07/23 08:28:40;;;;;;;8.47;7.57;;;31.80;99.90;;;;;;4998881;28;20417;-45
2022/07/23 08:31:07;;;;;;;7.60;7.00;;;31.80;99.90;;;;;;5004675;28;20635;-51
2022/07/23 08:33:34;;;;;;;8.93;8.23;;;32.00;99.90;;;;;;4998443;28;20487;-46
2022/07/23 08:36:03;;;;;;;9.57;8.67;;;32.90;99.90;;;;;;4997026;28;20512;-50
2022/07/23 08:38:32;;;;;;;13.93;7.17;;;33.00;99.90;;;;;;4990484;28;20490;-47
2022/07/23 08:41:00;;;;;;;8.00;7.30;;;33.20;99.90;;;;;;4990527;28;20535;-52
2022/07/23 08:43:33;;;;;;;9.63;8.00;;;33.10;99.90;;;;;;4989399;28;20463;-45
2022/07/23 08:46:02;;;;;;;7.70;7.00;;;33.50;99.90;;;;;;4993286;28;20491;-48
2022/07/23 08:48:32;;;;;;;15.10;9.70;;;34.10;98.70;;;;;;4992769;28;20778;-49
2022/07/23 08:51:03;;;;;;;8.57;7.43;;;34.60;98.10;;;;;;4991792;28;20841;-49
2022/07/23 08:53:32;;;;;;;9.10;8.40;;;34.90;97.40;;;;;;5004271;28;20451;-49
2022/07/23 08:56:01;;;;;;;9.20;8.40;;;35.30;96.80;;;;;;5002740;28;20773;-45
2022/07/23 08:58:29;;;;;;;16.50;8.03;;;35.80;94.80;;;;;;5002847;28;20432;-51
2022/07/23 09:00:57;;;;;;;7.73;7.13;;;35.50;94.80;;;;;;5004593;28;20487;-52
2022/07/23 09:03:26;;;;;;;9.70;8.90;;;35.30;95.50;;;;;;5004978;28;20451;-47
2022/07/23 09:05:56;;;;;;;8.63;7.53;;;35.20;94.90;;;;;;5005753;28;20658;-49
2022/07/23 09:08:34;;;;;;;8.37;7.20;;;35.00;94.80;;;;;;4986153;28;20458;-47
2022/07/23 09:11:03;;;;;;;8.47;7.60;;;34.80;95.50;;;;;;5004782;28;20450;-47
2022/07/23 09:13:33;;;;;;;6.90;6.40;;;35.30;94.20;;;;;;5004154;28;20859;-52
2022/07/23 09:16:08;;;;;;;8.17;7.40;;;36.20;92.70;;;;;;5004476;28;20772;-54
2022/07/23 09:18:41;;;;;;;9.00;8.20;;;36.90;91.80;;;;;;5002718;28;20493;-53
2022/07/23 09:21:20;;;;;;;7.33;6.80;;;36.10;91.40;;;;;;4998403;28;20509;-51
2022/07/23 09:23:58;;;;;;;8.90;8.10;;;35.80;92.20;;;;;;5000682;28;20473;-48
2022/07/23 09:26:32;;;;;;;8.17;7.47;;;35.70;92.10;;;;;;5000516;28;20443;-48
2022/07/23 09:29:13;;;;;;;9.10;7.80;;;35.40;92.50;;;;;;5000574;28;20763;-47
2022/07/23 09:31:59;;;;;;;9.37;7.00;;;35.70;92.20;;;;;;5000862;28;20465;-45
2022/07/23 09:34:41;;;;;;;9.43;7.70;;;36.00;91.60;;;;;;5001148;28;20478;-49
2022/07/23 09:37:13;;;;;;;8.80;8.00;;;36.20;91.10;;;;;;4995324;28;20490;-51
2022/07/23 09:39:41;;;;;;;7.63;7.03;;;35.50;91.40;;;;;;4983171;28;21315;-50
2022/07/23 09:42:20;;;;;;;9.73;8.03;;;35.20;91.80;;;;;;5000607;28;20802;-48
2022/07/23 09:44:49;;;;;;;7.93;7.33;;;35.00;92.10;;;;;;5000480;28;20455;-49
2022/07/23 09:47:17;;;;;;;10.20;8.33;;;35.00;91.80;;;;;;5000586;28;20428;-48
2022/07/23 09:50:20;;;;;;;8.27;7.37;;;34.60;92.50;;;;;;5000428;28;20703;-46
2022/07/23 09:52:53;;;;;;;9.60;8.60;;;34.00;93.60;;;;;;4918968;29;20430;-50
2022/07/23 09:55:38;;;;;;;9.50;8.57;;;33.50;94.60;;;;;;4988041;28;20440;-47
2022/07/23 09:58:09;;;;;;;8.13;7.37;;;32.90;95.20;;;;;;5000041;28;20432;-47
2022/07/23 10:00:37;;;;;;;9.60;7.90;;;32.50;96.00;;;;;;5000159;28;20442;-51
2022/07/23 10:03:06;;;;;;;8.50;7.70;;;31.80;97.00;;;;;;5000550;28;20434;-51
2022/07/23 10:05:35;;;;;;;10.00;7.60;;;30.70;98.80;;;;;;4998559;28;20425;-48
2022/07/23 10:08:03;;;;;;;8.07;7.27;;;30.10;99.90;;;;;;5002241;28;20516;-47
2022/07/23 10:10:31;;;;;;;11.13;9.20;;;29.40;99.90;;;;;;5005211;28;20507;-45
2022/07/23 10:15:48;;;;;;;8.50;7.70;;;28.60;99.90;;;;;;5010031;28;20664;-47
2022/07/23 10:18:15;;;;;;;9.33;8.40;;;28.00;99.90;;;;;;5014505;28;20441;-48
2022/07/23 10:20:43;;;;;;;8.40;7.70;;;27.60;99.90;;;;;;5012546;28;20438;-49
2022/07/23 10:23:21;;;;;;;8.80;7.90;;;27.40;99.90;;;;;;5014914;28;20458;-45
2022/07/23 10:25:56;;;;;;;9.47;8.77;;;26.90;99.90;;;;;;5011446;28;20491;-48
2022/07/23 10:28:50;;;;;;;9.80;8.70;;;25.70;99.90;;;;;;5015470;28;20725;-48
2022/07/23 10:31:27;;;;;;;9.30;7.10;;;24.70;99.90;;;;;;5008028;28;20450;-51
2022/07/23 10:34:41;;;;;;;9.10;8.20;;;23.80;99.90;;;;;;5004632;28;20482;-52
2022/07/23 10:37:25;;;;;;;8.97;8.13;;;23.10;99.90;;;;;;5007535;28;20762;-51
2022/07/23 10:40:10;;;;;;;9.50;8.60;;;22.90;99.90;;;;;;5013357;28;20441;-52
2022/07/23 10:42:38;;;;;;;13.17;9.97;;;22.60;99.90;;;;;;5011772;28;20459;-49
2022/07/23 10:45:26;;;;;;;12.27;11.07;;;22.50;99.90;;;;;;5016275;28;20447;-49
2022/07/23 10:47:54;;;;;;;11.43;10.33;;;22.60;99.90;;;;;;4998674;28;20454;-51
2022/07/23 10:50:30;;;;;;;12.77;11.67;;;22.70;99.90;;;;;;4999757;28;20440;-50
2022/07/23 10:53:09;;;;;;;12.20;10.90;;;22.90;99.90;;;;;;5011257;28;20435;-50
2022/07/23 10:55:36;;;;;;;10.90;9.90;;;23.00;99.90;;;;;;5002447;28;20581;-52
2022/07/23 10:58:05;;;;;;;11.27;10.17;;;22.70;99.90;;;;;;4987970;28;20569;-54
2022/07/23 11:00:34;;;;;;;12.27;10.97;;;22.70;99.90;;;;;;4987399;28;20414;-50
2022/07/23 11:03:31;;;;;;;11.30;9.60;;;22.40;99.90;;;;;;4987130;28;20506;-52
2022/07/23 11:05:59;;;;;;;11.17;10.00;;;22.20;99.90;;;;;;4970096;28;20681;-53
2022/07/23 11:08:26;;;;;;;12.83;11.60;;;22.30;99.90;;;;;;4987311;28;20773;-55
2022/07/23 11:11:03;;;;;;;13.17;11.90;;;22.40;99.90;;;;;;4986659;28;20502;-58
2022/07/23 11:13:33;;;;;;;12.80;11.60;;;22.70;99.90;;;;;;4991568;28;20809;-51
2022/07/23 11:16:01;;;;;;;14.30;12.80;;;22.70;99.90;;;;;;4989699;28;20411;-56
2022/07/23 11:18:43;;;;;;;13.63;11.40;;;22.90;99.90;;;;;;4999673;28;20755;-49
2022/07/23 11:21:31;;;;;;;13.97;10.90;;;23.00;99.90;;;;;;5001076;28;20479;-53
2022/07/23 11:24:13;;;;;;;12.40;11.20;;;22.90;99.90;;;;;;4999438;28;20437;-54
2022/07/23 11:26:41;;;;;;;12.53;11.50;;;22.90;99.90;;;;;;5002726;28;20481;-53
2022/07/23 11:29:27;;;;;;;13.17;11.97;;;22.80;99.90;;;;;;4986759;28;20417;-51
2022/07/23 11:32:00;;;;;;;13.83;12.43;;;22.90;99.90;;;;;;4993386;28;20410;-51
2022/07/23 11:34:31;;;;;;;13.47;12.27;;;23.00;99.90;;;;;;4991263;28;20513;-56
2022/07/23 11:37:00;;;;;;;17.20;13.47;;;23.20;99.90;;;;;;5013438;28;20440;-52
2022/07/23 11:39:30;;;;;;;12.73;11.40;;;23.20;99.90;;;;;;5008882;28;20752;-51
2022/07/23 11:41:58;;;;;;;14.50;13.10;;;23.30;99.90;;;;;;5011592;28;20464;-52
2022/07/23 11:44:37;;;;;;;12.40;11.30;;;23.50;99.90;;;;;;5008698;28;20430;-49
2022/07/23 11:47:06;;;;;;;14.23;12.53;;;23.60;99.90;;;;;;5011779;28;20439;-50
2022/07/23 11:49:34;;;;;;;14.87;13.37;;;23.70;99.90;;;;;;5008342;28;20423;-51
2022/07/23 11:52:15;;;;;;;13.93;12.53;;;23.90;99.90;;;;;;5009826;28;20424;-49
2022/07/23 11:54:54;;;;;;;14.57;13.10;;;24.40;99.90;;;;;;5010140;28;20632;-50
2022/07/23 11:57:31;;;;;;;14.70;13.37;;;24.80;99.90;;;;;;5014367;28;20429;-49
2022/07/23 12:00:10;;;;;;;12.60;11.50;;;25.20;99.90;;;;;;5008979;28;20592;-51
2022/07/23 12:02:44;;;;;;;11.87;10.77;;;25.20;99.90;;;;;;5015434;28;20460;-53
2022/07/23 12:05:17;;;;;;;12.00;10.70;;;25.20;99.90;;;;;;5007731;28;20609;-46
2022/07/23 12:07:49;;;;;;;12.80;11.53;;;25.10;99.90;;;;;;5010768;28;20736;-50
2022/07/23 12:10:25;;;;;;;15.43;11.10;;;25.20;99.90;;;;;;5008752;28;20416;-51
2022/07/23 12:13:10;;;;;;;11.53;10.43;;;25.30;99.90;;;;;;4997116;28;20505;-52
2022/07/23 12:15:44;;;;;;;12.67;11.27;;;25.40;99.90;;;;;;5006456;28;20430;-51
2022/07/23 12:18:13;;;;;;;13.00;10.73;;;26.20;99.90;;;;;;5009430;28;20603;-50
2022/07/23 12:20:48;;;;;;;11.70;10.60;;;27.10;99.90;;;;;;5010461;28;20463;-54
2022/07/23 12:23:18;;;;;;;11.53;10.40;;;28.00;99.90;;;;;;5010871;28;20550;-50
2022/07/23 12:25:49;;;;;;;9.87;8.97;;;28.70;99.90;;;;;;5008312;28;20776;-47
2022/07/23 12:28:26;;;;;;;11.30;10.20;;;29.30;99.90;;;;;;5011955;28;20815;-54
2022/07/23 12:30:56;;;;;;;13.47;12.20;;;29.50;99.90;;;;;;5005322;28;20442;-51
2022/07/23 12:33:32;;;;;;;11.83;10.80;;;29.50;99.90;;;;;;5009064;28;20526;-50
2022/07/23 12:36:06;;;;;;;10.77;9.77;;;29.40;99.90;;;;;;5012786;28;20473;-50
2022/07/23 12:38:50;;;;;;;10.43;9.43;;;29.40;99.90;;;;;;5010995;28;20442;-51
2022/07/23 12:41:18;;;;;;;9.80;9.00;;;29.20;99.90;;;;;;5011051;28;20481;-52
2022/07/23 12:43:46;;;;;;;10.00;9.10;;;29.10;99.90;;;;;;5006366;28;20458;-46
2022/07/23 12:46:19;;;;;;;9.83;9.00;;;28.70;99.90;;;;;;5012997;28;20487;-47
2022/07/23 12:48:49;;;;;;;11.10;9.40;;;28.60;99.90;;;;;;5000869;28;20422;-49
2022/07/23 12:51:39;;;;;;;9.73;8.93;;;28.80;99.90;;;;;;5003228;28;20440;-51
2022/07/23 12:54:12;;;;;;;10.57;9.57;;;28.70;99.90;;;;;;5011052;28;20427;-45
2022/07/23 12:56:44;;;;;;;10.17;9.27;;;28.70;99.90;;;;;;5005558;28;20453;-50